sensor_id;sensor_type;location;lat;lon;timestamp;temperature;humidity
14020;DHT22;7085;51.428;6.796;2022-10-17T04:15:09;16.40;99.90
14020;DHT22;7085;51.428;6.796;2022-10-17T04:17:36;16.40;99.90
14020;DHT22;7085;51.428;6.796;2022-10-17T04:20:03;16.50;99.90
14020;DHT22;7085;51.428;6.796;2022-10-17T04:22:30;16.60;99.90
14020;DHT22;7085;51.428;6.796;2022-10-17T04:24:57;16.60;99.90
14020;DHT22;7085;51.428;6.796;2022-10-17T04:27:23;16.60;99.90
14020;DHT22;7085;51.428;6.796;2022-10-17T04:29:51;16.60;99.90
14020;DHT22;7085;51.428;6.796;2022-10-17T04:32:18;16.60;99.90
14020;DHT22;7085;51.428;6.796;2022-10-17T04:34:47;16.60;99.90
14020;DHT22;7085;51.428;6.796;2022-10-17T04:39:44;16.70;99.90
14020;DHT22;7085;51.428;6.796;2022-10-17T04:42:10;16.80;99.90
14020;DHT22;7085;51.428;6.796;2022-10-17T04:44:37;16.80;99.90
14020;DHT22;7085;51.428;6.796;2022-10-17T04:47:07;15.50;99.90
14020;DHT22;7085;51.428;6.796;2022-10-17T04:49:33;16.90;99.90
14020;DHT22;7085;51.428;6.796;2022-10-17T04:52:00;16.90;99.90
14020;DHT22;7085;51.428;6.796;2022-10-17T04:54:27;16.90;99.90
14020;DHT22;7085;51.428;6.796;2022-10-17T04:56:53;17.20;99.90
14020;DHT22;7085;51.428;6.796;2022-10-17T04:59:20;17.00;99.90
14020;DHT22;7085;51.428;6.796;2022-10-17T05:01:47;16.90;99.90
14020;DHT22;7085;51.428;6.796;2022-10-17T05:04:16;17.00;99.90
14020;DHT22;7085;51.428;6.796;2022-10-17T05:06:42;17.00;99.90
14020;DHT22;7085;51.428;6.796;2022-10-17T05:09:09;17.00;99.90
14020;DHT22;7085;51.428;6.796;2022-10-17T05:11:36;17.10;99.90
14020;DHT22;7085;51.428;6.796;2022-10-17T05:14:03;17.10;99.90
14020;DHT22;7085;51.428;6.796;2022-10-17T05:16:30;17.20;99.90
14020;DHT22;7085;51.428;6.796;2022-10-17T05:18:57;17.20;99.90
14020;DHT22;7085;51.428;6.796;2022-10-17T05:21:29;17.20;99.90
14020;DHT22;7085;51.428;6.796;2022-10-17T05:23:56;17.10;99.90
14020;DHT22;7085;51.428;6.796;2022-10-17T05:26:23;17.10;99.90
14020;DHT22;7085;51.428;6.796;2022-10-17T05:28:50;17.20;99.90
14020;DHT22;7085;51.428;6.796;2022-10-17T05:31:17;17.20;99.90
14020;DHT22;7085;51.428;6.796;2022-10-17T05:33:44;17.20;99.90
14020;DHT22;7085;51.428;6.796;2022-10-17T05:36:11;17.20;99.90
14020;DHT22;7085;51.428;6.796;2022-10-17T05:38:39;17.20;99.90
14020;DHT22;7085;51.428;6.796;2022-10-17T05:41:05;17.20;99.90
14020;DHT22;7085;51.428;6.796;2022-10-17T05:43:33;17.30;99.90
14020;DHT22;7085;51.428;6.796;2022-10-17T05:46:02;17.20;99.90
14020;DHT22;7085;51.428;6.796;2022-10-17T05:48:29;17.20;99.90
14020;DHT22;7085;51.428;6.796;2022-10-17T05:50:57;17.20;99.90
14020;DHT22;7085;51.428;6.796;2022-10-17T05:53:24;17.70;99.90
14020;DHT22;7085;51.428;6.796;2022-10-17T05:55:56;17.20;99.90
14020;DHT22;7085;51.428;6.796;2022-10-17T05:58:23;17.20;99.90
14020;DHT22;7085;51.428;6.796;2022-10-17T06:00:50;17.20;99.90
14020;DHT22;7085;51.428;6.796;2022-10-17T06:03:16;17.20;99.90
14020;DHT22;7085;51.428;6.796;2022-10-17T06:05:43;17.10;99.90
14020;DHT22;7085;51.428;6.796;2022-10-17T06:08:10;17.10;99.90
14020;DHT22;7085;51.428;6.796;2022-10-17T06:10:37;17.10;99.90
14020;DHT22;7085;51.428;6.796;2022-10-17T06:13:05;17.00;99.90
14020;DHT22;7085;51.428;6.796;2022-10-17T06:15:32;17.10;99.90
14020;DHT22;7085;51.428;6.796;2022-10-17T06:17:59;17.10;99.90
14020;DHT22;7085;51.428;6.796;2022-10-17T06:20:26;17.40;99.90
14020;DHT22;7085;51.428;6.796;2022-10-17T06:22:52;17.10;99.90
14020;DHT22;7085;51.428;6.796;2022-10-17T06:25:19;17.10;99.90
14020;DHT22;7085;51.428;6.796;2022-10-17T06:27:46;17.20;99.90
14020;DHT22;7085;51.428;6.796;2022-10-17T06:30:14;17.20;99.90
14020;DHT22;7085;51.428;6.796;2022-10-17T06:32:41;17.20;99.90
14020;DHT22;7085;51.428;6.796;2022-10-17T06:35:08;17.20;99.90
14020;DHT22;7085;51.428;6.796;2022-10-17T06:37:34;17.20;99.90
14020;DHT22;7085;51.428;6.796;2022-10-17T06:40:02;17.20;99.90
14020;DHT22;7085;51.428;6.796;2022-10-17T06:42:28;17.20;99.90
14020;DHT22;7085;51.428;6.796;2022-10-17T06:44:55;17.40;99.90
14020;DHT22;7085;51.428;6.796;2022-10-17T06:47:23;17.30;99.90
14020;DHT22;7085;51.428;6.796;2022-10-17T06:49:50;17.40;99.90
14020;DHT22;7085;51.428;6.796;2022-10-17T06:52:17;17.40;99.90
14020;DHT22;7085;51.428;6.796;2022-10-17T06:54:43;18.10;99.90
14020;DHT22;7085;51.428;6.796;2022-10-17T06:57:10;17.50;99.90
14020;DHT22;7085;51.428;6.796;2022-10-17T06:59:37;17.50;99.90
14020;DHT22;7085;51.428;6.796;2022-10-17T07:02:04;17.50;99.90
14020;DHT22;7085;51.428;6.796;2022-10-17T07:04:32;15.60;99.90
14020;DHT22;7085;51.428;6.796;2022-10-17T07:06:58;17.60;99.90
14020;DHT22;7085;51.428;6.796;2022-10-17T07:09:27;17.70;99.90
14020;DHT22;7085;51.428;6.796;2022-10-17T07:11:54;17.70;99.90
14020;DHT22;7085;51.428;6.796;2022-10-17T07:14:21;17.70;99.90
14020;DHT22;7085;51.428;6.796;2022-10-17T07:16:48;17.70;99.90
14020;DHT22;7085;51.428;6.796;2022-10-17T07:19:14;17.70;99.90
14020;DHT22;7085;51.428;6.796;2022-10-17T07:21:42;17.80;99.90
14020;DHT22;7085;51.428;6.796;2022-10-17T07:24:09;17.90;99.90
14020;DHT22;7085;51.428;6.796;2022-10-17T07:26:36;18.00;99.90
14020;DHT22;7085;51.428;6.796;2022-10-17T07:29:02;18.00;99.90
14020;DHT22;7085;51.428;6.796;2022-10-17T07:31:30;18.10;99.90
14020;DHT22;7085;51.428;6.796;2022-10-17T07:33:58;18.20;99.90
14020;DHT22;7085;51.428;6.796;2022-10-17T07:36:25;18.30;99.90
14020;DHT22;7085;51.428;6.796;2022-10-17T07:38:53;18.40;99.90
14020;DHT22;7085;51.428;6.796;2022-10-17T07:41:20;18.50;99.90
14020;DHT22;7085;51.428;6.796;2022-10-17T07:43:47;18.50;99.90
14020;DHT22;7085;51.428;6.796;2022-10-17T07:46:14;18.60;99.90
14020;DHT22;7085;51.428;6.796;2022-10-17T07:48:41;18.60;99.90
14020;DHT22;7085;51.428;6.796;2022-10-17T07:51:08;18.60;99.90
14020;DHT22;7085;51.428;6.796;2022-10-17T07:53:35;18.60;99.90
14020;DHT22;7085;51.428;6.796;2022-10-17T07:58:32;18.70;99.90
14020;DHT22;7085;51.428;6.796;2022-10-17T08:01:00;18.90;99.90
14020;DHT22;7085;51.428;6.796;2022-10-17T08:03:28;19.70;99.90
14020;DHT22;7085;51.428;6.796;2022-10-17T08:05:57;20.10;99.90
14020;DHT22;7085;51.428;6.796;2022-10-17T08:08:24;20.50;99.90
14020;DHT22;7085;51.428;6.796;2022-10-17T08:10:51;21.20;99.90
14020;DHT22;7085;51.428;6.796;2022-10-17T08:15:47;21.30;99.90
14020;DHT22;7085;51.428;6.796;2022-10-17T08:18:14;20.90;99.90
14020;DHT22;7085;51.428;6.796;2022-10-17T08:20:42;20.60;99.90
14020;DHT22;7085;51.428;6.796;2022-10-17T08:23:08;21.30;99.90
14020;DHT22;7085;51.428;6.796;2022-10-17T08:25:37;21.70;99.90
14020;DHT22;7085;51.428;6.796;2022-10-17T08:28:04;22.60;99.90
14020;DHT22;7085;51.428;6.796;2022-10-17T08:30:33;23.10;99.90
14020;DHT22;7085;51.428;6.796;2022-10-17T08:32:59;23.90;99.90
14020;DHT22;7085;51.428;6.796;2022-10-17T08:35:26;22.70;99.90
14020;DHT22;7085;51.428;6.796;2022-10-17T08:37:53;22.20;99.90
14020;DHT22;7085;51.428;6.796;2022-10-17T08:40:21;21.30;99.90
14020;DHT22;7085;51.428;6.796;2022-10-17T08:46:06;21.90;99.90
14020;DHT22;7085;51.428;6.796;2022-10-17T08:48:38;21.90;99.90
14020;DHT22;7085;51.428;6.796;2022-10-17T08:51:10;21.90;99.90
14020;DHT22;7085;51.428;6.796;2022-10-17T08:53:42;21.70;99.90
14020;DHT22;7085;51.428;6.796;2022-10-17T08:56:17;21.60;99.90
14020;DHT22;7085;51.428;6.796;2022-10-17T08:58:44;21.60;99.90
14020;DHT22;7085;51.428;6.796;2022-10-17T09:01:30;21.70;99.90
14020;DHT22;7085;51.428;6.796;2022-10-17T09:04:30;22.50;99.90
14020;DHT22;7085;51.428;6.796;2022-10-17T09:07:05;21.30;99.90
14020;DHT22;7085;51.428;6.796;2022-10-17T09:09:39;21.40;99.90
14020;DHT22;7085;51.428;6.796;2022-10-17T09:12:14;21.40;99.90
14020;DHT22;7085;51.428;6.796;2022-10-17T09:14:52;21.40;99.90
14020;DHT22;7085;51.428;6.796;2022-10-17T09:17:31;21.50;99.90
14020;DHT22;7085;51.428;6.796;2022-10-17T09:20:03;22.30;99.90
14020;DHT22;7085;51.428;6.796;2022-10-17T09:22:37;22.00;99.90
14020;DHT22;7085;51.428;6.796;2022-10-17T09:25:11;22.30;99.90
14020;DHT22;7085;51.428;6.796;2022-10-17T09:27:41;22.20;99.90
14020;DHT22;7085;51.428;6.796;2022-10-17T09:30:25;22.00;99.90
14020;DHT22;7085;51.428;6.796;2022-10-17T09:32:57;21.80;99.90
14020;DHT22;7085;51.428;6.796;2022-10-17T09:35:26;21.60;99.90
14020;DHT22;7085;51.428;6.796;2022-10-17T09:37:54;21.50;99.90
14020;DHT22;7085;51.428;6.796;2022-10-17T09:40:25;21.10;99.90
14020;DHT22;7085;51.428;6.796;2022-10-17T09:42:53;20.90;99.90
14020;DHT22;7085;51.428;6.796;2022-10-17T09:45:21;20.80;99.90
14020;DHT22;7085;51.428;6.796;2022-10-17T09:47:58;20.70;99.90
14020;DHT22;7085;51.428;6.796;2022-10-17T09:50:27;20.70;99.90
14020;DHT22;7085;51.428;6.796;2022-10-17T09:52:56;20.70;99.90
14020;DHT22;7085;51.428;6.796;2022-10-17T09:55:31;20.60;99.90
14020;DHT22;7085;51.428;6.796;2022-10-17T09:58:00;20.60;99.90
14020;DHT22;7085;51.428;6.796;2022-10-17T10:00:28;20.50;99.90
14020;DHT22;7085;51.428;6.796;2022-10-17T10:03:14;20.40;99.90
14020;DHT22;7085;51.428;6.796;2022-10-17T10:05:53;20.40;99.90
14020;DHT22;7085;51.428;6.796;2022-10-17T10:08:26;20.40;99.90
14020;DHT22;7085;51.428;6.796;2022-10-17T10:10:57;20.30;99.90
14020;DHT22;7085;51.428;6.796;2022-10-17T10:13:25;20.20;99.90
14020;DHT22;7085;51.428;6.796;2022-10-17T10:15:52;20.20;99.90
14020;DHT22;7085;51.428;6.796;2022-10-17T10:18:30;20.10;99.90
14020;DHT22;7085;51.428;6.796;2022-10-17T10:21:06;20.10;99.90
14020;DHT22;7085;51.428;6.796;2022-10-17T10:23:33;20.10;99.90
14020;DHT22;7085;51.428;6.796;2022-10-17T10:26:19;20.10;99.90
14020;DHT22;7085;51.428;6.796;2022-10-17T10:28:56;20.10;99.90
14020;DHT22;7085;51.428;6.796;2022-10-17T10:31:32;20.20;99.90
14020;DHT22;7085;51.428;6.796;2022-10-17T10:34:11;20.40;99.90
14020;DHT22;7085;51.428;6.796;2022-10-17T10:36:44;20.60;99.90
14020;DHT22;7085;51.428;6.796;2022-10-17T10:39:27;20.70;99.90
14020;DHT22;7085;51.428;6.796;2022-10-17T10:41:56;20.90;99.90
14020;DHT22;7085;51.428;6.796;2022-10-17T10:44:25;21.00;99.90
14020;DHT22;7085;51.428;6.796;2022-10-17T10:50:06;21.10;99.90
14020;DHT22;7085;51.428;6.796;2022-10-17T10:52:38;21.00;99.90
14020;DHT22;7085;51.428;6.796;2022-10-17T10:55:17;20.90;99.90
14020;DHT22;7085;51.428;6.796;2022-10-17T10:57:48;20.90;99.90
14020;DHT22;7085;51.428;6.796;2022-10-17T11:00:18;20.70;99.90
14020;DHT22;7085;51.428;6.796;2022-10-17T11:02:52;20.50;99.90
14020;DHT22;7085;51.428;6.796;2022-10-17T11:05:32;20.40;99.90
14020;DHT22;7085;51.428;6.796;2022-10-17T11:08:06;20.40;99.90
14020;DHT22;7085;51.428;6.796;2022-10-17T11:10:40;20.20;99.90
14020;DHT22;7085;51.428;6.796;2022-10-17T11:13:12;20.30;99.90
14020;DHT22;7085;51.428;6.796;2022-10-17T11:15:43;20.30;99.90
14020;DHT22;7085;51.428;6.796;2022-10-17T11:18:18;20.30;99.90
14020;DHT22;7085;51.428;6.796;2022-10-17T11:20:52;20.20;99.90
14020;DHT22;7085;51.428;6.796;2022-10-17T11:23:23;20.20;99.90
14020;DHT22;7085;51.428;6.796;2022-10-17T11:25:53;20.30;99.90
14020;DHT22;7085;51.428;6.796;2022-10-17T11:28:23;20.30;99.90
14020;DHT22;7085;51.428;6.796;2022-10-17T11:30:53;20.30;99.90
14020;DHT22;7085;51.428;6.796;2022-10-17T11:33:26;20.40;99.90
14020;DHT22;7085;51.428;6.796;2022-10-17T11:35:59;20.30;99.90
14020;DHT22;7085;51.428;6.796;2022-10-17T11:38:35;20.50;99.90
14020;DHT22;7085;51.428;6.796;2022-10-17T11:41:05;20.40;99.90
14020;DHT22;7085;51.428;6.796;2022-10-17T11:43:35;20.40;99.90
14020;DHT22;7085;51.428;6.796;2022-10-17T11:46:10;20.50;99.90
14020;DHT22;7085;51.428;6.796;2022-10-17T11:48:41;20.70;99.90
14020;DHT22;7085;51.428;6.796;2022-10-17T11:51:12;20.70;99.90
14020;DHT22;7085;51.428;6.796;2022-10-17T11:53:46;20.80;99.90
14020;DHT22;7085;51.428;6.796;2022-10-17T11:56:20;20.90;99.90
14020;DHT22;7085;51.428;6.796;2022-10-17T11:58:55;20.90;99.90
14020;DHT22;7085;51.428;6.796;2022-10-17T12:01:31;20.80;99.90
14020;DHT22;7085;51.428;6.796;2022-10-17T12:04:14;20.70;99.90
14020;DHT22;7085;51.428;6.796;2022-10-17T12:06:51;20.70;99.90
14020;DHT22;7085;51.428;6.796;2022-10-17T12:09:25;20.70;99.90
14020;DHT22;7085;51.428;6.796;2022-10-17T12:11:57;20.60;99.90
14020;DHT22;7085;51.428;6.796;2022-10-17T12:14:41;20.50;99.90
14020;DHT22;7085;51.428;6.796;2022-10-17T12:17:27;20.50;99.90
14020;DHT22;7085;51.428;6.796;2022-10-17T12:20:25;20.40;99.90
14020;DHT22;7085;51.428;6.796;2022-10-17T12:22:55;20.30;99.90
14020;DHT22;7085;51.428;6.796;2022-10-17T12:25:25;20.20;99.90
14020;DHT22;7085;51.428;6.796;2022-10-17T12:28:08;20.20;99.90
14020;DHT22;7085;51.428;6.796;2022-10-17T12:30:49;20.20;99.90
14020;DHT22;7085;51.428;6.796;2022-10-17T12:33:18;20.20;99.90
14020;DHT22;7085;51.428;6.796;2022-10-17T12:35:47;20.20;99.90
14020;DHT22;7085;51.428;6.796;2022-10-17T12:38:21;20.10;99.90
14020;DHT22;7085;51.428;6.796;2022-10-17T12:43:54;20.00;99.90
14020;DHT22;7085;51.428;6.796;2022-10-17T12:46:45;20.00;99.90
14020;DHT22;7085;51.428;6.796;2022-10-17T12:49:24;19.90;99.90
14020;DHT22;7085;51.428;6.796;2022-10-17T12:52:20;19.90;99.90
14020;DHT22;7085;51.428;6.796;2022-10-17T12:54:59;19.80;99.90
14020;DHT22;7085;51.428;6.796;2022-10-17T12:57:31;19.70;99.90
14020;DHT22;7085;51.428;6.796;2022-10-17T13:00:02;19.70;99.90
14020;DHT22;7085;51.428;6.796;2022-10-17T13:02:30;19.70;99.90
14020;DHT22;7085;51.428;6.796;2022-10-17T13:05:04;19.70;99.90
14020;DHT22;7085;51.428;6.796;2022-10-17T13:07:33;19.70;99.90
14020;DHT22;7085;51.428;6.796;2022-10-17T13:10:03;19.70;99.90
14020;DHT22;7085;51.428;6.796;2022-10-17T13:12:33;19.80;99.90
14020;DHT22;7085;51.428;6.796;2022-10-17T13:15:03;19.80;99.90
14020;DHT22;7085;51.428;6.796;2022-10-17T13:17:32;19.80;99.90
14020;DHT22;7085;51.428;6.796;2022-10-17T13:19:59;19.80;99.90
14020;DHT22;7085;51.428;6.796;2022-10-17T13:22:28;19.80;99.90
14020;DHT22;7085;51.428;6.796;2022-10-17T13:25:07;20.70;99.90
14020;DHT22;7085;51.428;6.796;2022-10-17T13:27:35;19.90;99.90
14020;DHT22;7085;51.428;6.796;2022-10-17T13:30:21;19.90;99.90
14020;DHT22;7085;51.428;6.796;2022-10-17T13:32:48;19.90;99.90
14020;DHT22;7085;51.428;6.796;2022-10-17T13:35:21;19.90;99.90
14020;DHT22;7085;51.428;6.796;2022-10-17T13:37:48;19.80;99.90
14020;DHT22;7085;51.428;6.796;2022-10-17T13:40:18;19.80;99.90
14020;DHT22;7085;51.428;6.796;2022-10-17T13:42:45;19.80;99.90
14020;DHT22;7085;51.428;6.796;2022-10-17T13:45:18;19.90;99.90
14020;DHT22;7085;51.428;6.796;2022-10-17T13:47:46;19.90;99.90
14020;DHT22;7085;51.428;6.796;2022-10-17T13:50:22;19.90;99.90
14020;DHT22;7085;51.428;6.796;2022-10-17T13:53:14;19.90;99.90
14020;DHT22;7085;51.428;6.796;2022-10-17T13:56:01;20.00;99.90
14020;DHT22;7085;51.428;6.796;2022-10-17T13:58:39;20.00;99.90
14020;DHT22;7085;51.428;6.796;2022-10-17T14:01:06;20.10;99.90
14020;DHT22;7085;51.428;6.796;2022-10-17T14:03:34;20.40;99.90
14020;DHT22;7085;51.428;6.796;2022-10-17T14:08:50;20.40;99.90
14020;DHT22;7085;51.428;6.796;2022-10-17T14:11:29;20.40;99.90
14020;DHT22;7085;51.428;6.796;2022-10-17T14:13:56;20.40;99.90
14020;DHT22;7085;51.428;6.796;2022-10-17T14:16:25;20.30;99.90
14020;DHT22;7085;51.428;6.796;2022-10-17T14:18:53;20.40;99.90
14020;DHT22;7085;51.428;6.796;2022-10-17T14:21:22;20.30;99.90
14020;DHT22;7085;51.428;6.796;2022-10-17T14:23:50;20.40;99.90
14020;DHT22;7085;51.428;6.796;2022-10-17T14:26:19;20.40;99.90
14020;DHT22;7085;51.428;6.796;2022-10-17T14:28:50;20.40;99.90
14020;DHT22;7085;51.428;6.796;2022-10-17T14:31:27;20.30;99.90
14020;DHT22;7085;51.428;6.796;2022-10-17T14:33:55;20.40;99.90
14020;DHT22;7085;51.428;6.796;2022-10-17T14:36:31;20.30;99.90
14020;DHT22;7085;51.428;6.796;2022-10-17T14:38:59;20.30;99.90
14020;DHT22;7085;51.428;6.796;2022-10-17T14:41:28;20.40;99.90
14020;DHT22;7085;51.428;6.796;2022-10-17T14:43:59;20.30;99.90
14020;DHT22;7085;51.428;6.796;2022-10-17T14:46:27;20.40;99.90
14020;DHT22;7085;51.428;6.796;2022-10-17T14:48:57;20.30;99.90
14020;DHT22;7085;51.428;6.796;2022-10-17T14:51:27;20.20;99.90
14020;DHT22;7085;51.428;6.796;2022-10-17T14:54:01;20.10;99.90
14020;DHT22;7085;51.428;6.796;2022-10-17T14:56:36;20.00;99.90
14020;DHT22;7085;51.428;6.796;2022-10-17T14:59:04;20.00;99.90
14020;DHT22;7085;51.428;6.796;2022-10-17T15:01:32;19.90;99.90
14020;DHT22;7085;51.428;6.796;2022-10-17T15:03:59;19.90;99.90
14020;DHT22;7085;51.428;6.796;2022-10-17T15:06:28;19.80;99.90
14020;DHT22;7085;51.428;6.796;2022-10-17T15:08:55;19.80;99.90
14020;DHT22;7085;51.428;6.796;2022-10-17T15:11:22;19.80;99.90
14020;DHT22;7085;51.428;6.796;2022-10-17T15:13:49;19.80;99.90
14020;DHT22;7085;51.428;6.796;2022-10-17T15:16:19;19.80;99.90
14020;DHT22;7085;51.428;6.796;2022-10-17T15:18:47;19.80;99.90
14020;DHT22;7085;51.428;6.796;2022-10-17T15:21:16;19.80;99.90
14020;DHT22;7085;51.428;6.796;2022-10-17T15:23:43;19.70;99.90
14020;DHT22;7085;51.428;6.796;2022-10-17T15:26:14;19.70;99.90
14020;DHT22;7085;51.428;6.796;2022-10-17T15:28:41;19.70;99.90
14020;DHT22;7085;51.428;6.796;2022-10-17T15:31:11;19.60;99.90
14020;DHT22;7085;51.428;6.796;2022-10-17T15:33:39;19.60;99.90
14020;DHT22;7085;51.428;6.796;2022-10-17T15:36:17;19.50;99.90
14020;DHT22;7085;51.428;6.796;2022-10-17T15:38:45;19.40;99.90
14020;DHT22;7085;51.428;6.796;2022-10-17T15:41:11;19.40;99.90
14020;DHT22;7085;51.428;6.796;2022-10-17T15:43:38;19.30;99.90
14020;DHT22;7085;51.428;6.796;2022-10-17T15:46:10;19.20;99.90
14020;DHT22;7085;51.428;6.796;2022-10-17T15:48:39;19.10;99.90
14020;DHT22;7085;51.428;6.796;2022-10-17T15:51:06;19.10;99.90
14020;DHT22;7085;51.428;6.796;2022-10-17T15:53:33;19.10;99.90
14020;DHT22;7085;51.428;6.796;2022-10-17T15:56:00;19.00;99.90
14020;DHT22;7085;51.428;6.796;2022-10-17T15:58:35;22.10;99.90
14020;DHT22;7085;51.428;6.796;2022-10-17T16:01:04;19.00;99.90
14020;DHT22;7085;51.428;6.796;2022-10-17T16:03:32;18.90;99.90
14020;DHT22;7085;51.428;6.796;2022-10-17T16:06:00;19.10;99.90
14020;DHT22;7085;51.428;6.796;2022-10-17T16:08:27;18.70;99.90
14020;DHT22;7085;51.428;6.796;2022-10-17T16:10:54;18.60;99.90
14020;DHT22;7085;51.428;6.796;2022-10-17T16:13:23;18.70;99.90
14020;DHT22;7085;51.428;6.796;2022-10-17T16:15:50;18.70;99.90
14020;DHT22;7085;51.428;6.796;2022-10-17T16:18:17;20.50;99.90
14020;DHT22;7085;51.428;6.796;2022-10-17T16:20:45;18.70;99.90
14020;DHT22;7085;51.428;6.796;2022-10-17T16:23:13;19.70;99.90
14020;DHT22;7085;51.428;6.796;2022-10-17T16:25:41;18.50;99.90
14020;DHT22;7085;51.428;6.796;2022-10-17T16:28:08;18.50;99.90
14020;DHT22;7085;51.428;6.796;2022-10-17T16:30:40;18.50;99.90
14020;DHT22;7085;51.428;6.796;2022-10-17T16:33:09;18.40;99.90
14020;DHT22;7085;51.428;6.796;2022-10-17T16:35:36;18.30;99.90
14020;DHT22;7085;51.428;6.796;2022-10-17T16:38:03;18.30;99.90
14020;DHT22;7085;51.428;6.796;2022-10-17T16:40:31;18.20;99.90
14020;DHT22;7085;51.428;6.796;2022-10-17T16:42:58;18.20;99.90
14020;DHT22;7085;51.428;6.796;2022-10-17T16:45:25;18.10;99.90
14020;DHT22;7085;51.428;6.796;2022-10-17T16:47:52;18.10;99.90
14020;DHT22;7085;51.428;6.796;2022-10-17T16:50:18;18.00;99.90
14020;DHT22;7085;51.428;6.796;2022-10-17T16:52:45;18.20;99.90
14020;DHT22;7085;51.428;6.796;2022-10-17T16:55:12;19.80;99.90
14020;DHT22;7085;51.428;6.796;2022-10-17T16:57:42;18.10;99.90
14020;DHT22;7085;51.428;6.796;2022-10-17T17:00:10;19.50;99.90
14020;DHT22;7085;51.428;6.796;2022-10-17T17:02:38;18.10;99.90
14020;DHT22;7085;51.428;6.796;2022-10-17T17:05:06;18.10;99.90
14020;DHT22;7085;51.428;6.796;2022-10-17T17:07:32;18.00;99.90
14020;DHT22;7085;51.428;6.796;2022-10-17T17:09:59;17.90;99.90
14020;DHT22;7085;51.428;6.796;2022-10-17T17:12:26;17.90;99.90
14020;DHT22;7085;51.428;6.796;2022-10-17T17:14:54;17.80;99.90
14020;DHT22;7085;51.428;6.796;2022-10-17T17:17:22;17.90;99.90
14020;DHT22;7085;51.428;6.796;2022-10-17T17:19:49;17.80;99.90
14020;DHT22;7085;51.428;6.796;2022-10-17T17:22:15;18.20;99.90
14020;DHT22;7085;51.428;6.796;2022-10-17T17:24:42;17.80;99.90
14020;DHT22;7085;51.428;6.796;2022-10-17T17:27:09;19.30;99.90
14020;DHT22;7085;51.428;6.796;2022-10-17T17:29:35;18.80;99.90
14020;DHT22;7085;51.428;6.796;2022-10-17T17:32:04;17.70;99.90
14020;DHT22;7085;51.428;6.796;2022-10-17T17:34:34;19.10;99.90
14020;DHT22;7085;51.428;6.796;2022-10-17T17:37:01;17.70;99.90
14020;DHT22;7085;51.428;6.796;2022-10-17T17:39:28;17.70;99.90
14020;DHT22;7085;51.428;6.796;2022-10-17T17:41:55;18.50;99.90
14020;DHT22;7085;51.428;6.796;2022-10-17T17:44:22;18.60;99.90
14020;DHT22;7085;51.428;6.796;2022-10-17T17:46:48;17.70;99.90
14020;DHT22;7085;51.428;6.796;2022-10-17T17:49:16;17.70;99.90
14020;DHT22;7085;51.428;6.796;2022-10-17T17:51:43;17.60;99.90
14020;DHT22;7085;51.428;6.796;2022-10-17T17:54:11;17.60;99.90
14020;DHT22;7085;51.428;6.796;2022-10-17T17:56:38;17.60;99.90
14020;DHT22;7085;51.428;6.796;2022-10-17T17:59:05;17.50;99.90
14020;DHT22;7085;51.428;6.796;2022-10-17T18:01:33;17.50;99.90
14020;DHT22;7085;51.428;6.796;2022-10-17T18:04:04;17.60;99.90
14020;DHT22;7085;51.428;6.796;2022-10-17T18:06:32;17.50;99.90
14020;DHT22;7085;51.428;6.796;2022-10-17T18:08:59;17.50;99.90
14020;DHT22;7085;51.428;6.796;2022-10-17T18:11:27;17.50;99.90
14020;DHT22;7085;51.428;6.796;2022-10-17T18:13:54;17.50;99.90
14020;DHT22;7085;51.428;6.796;2022-10-17T18:16:21;17.40;99.90
14020;DHT22;7085;51.428;6.796;2022-10-17T18:18:48;18.40;99.90
14020;DHT22;7085;51.428;6.796;2022-10-17T18:21:15;17.40;99.90
14020;DHT22;7085;51.428;6.796;2022-10-17T18:23:44;17.40;99.90
14020;DHT22;7085;51.428;6.796;2022-10-17T18:26:12;17.40;99.90
14020;DHT22;7085;51.428;6.796;2022-10-17T18:28:40;17.40;99.90
14020;DHT22;7085;51.428;6.796;2022-10-17T18:31:09;17.40;99.90
14020;DHT22;7085;51.428;6.796;2022-10-17T18:33:36;18.20;99.90
14020;DHT22;7085;51.428;6.796;2022-10-17T18:36:05;17.30;99.90
14020;DHT22;7085;51.428;6.796;2022-10-17T18:38:32;17.30;99.90
14020;DHT22;7085;51.428;6.796;2022-10-17T18:41:06;17.20;99.90
14020;DHT22;7085;51.428;6.796;2022-10-17T18:43:33;17.20;99.90
14020;DHT22;7085;51.428;6.796;2022-10-17T18:46:02;17.20;99.90
14020;DHT22;7085;51.428;6.796;2022-10-17T18:48:30;17.20;99.90
14020;DHT22;7085;51.428;6.796;2022-10-17T18:50:57;18.40;99.90
14020;DHT22;7085;51.428;6.796;2022-10-17T18:53:24;17.10;99.90
14020;DHT22;7085;51.428;6.796;2022-10-17T18:55:51;17.00;99.90
14020;DHT22;7085;51.428;6.796;2022-10-17T18:58:19;17.00;99.90
14020;DHT22;7085;51.428;6.796;2022-10-17T19:00:46;17.40;99.90
14020;DHT22;7085;51.428;6.796;2022-10-17T19:03:13;17.00;99.90
14020;DHT22;7085;51.428;6.796;2022-10-17T19:05:40;17.20;99.90
14020;DHT22;7085;51.428;6.796;2022-10-17T19:08:09;17.00;99.90
14020;DHT22;7085;51.428;6.796;2022-10-17T19:10:37;17.80;99.90
14020;DHT22;7085;51.428;6.796;2022-10-17T19:13:04;17.00;99.90
14020;DHT22;7085;51.428;6.796;2022-10-17T19:15:32;16.90;99.90
14020;DHT22;7085;51.428;6.796;2022-10-17T19:17:59;16.90;99.90
14020;DHT22;7085;51.428;6.796;2022-10-17T19:20:26;16.90;99.90
14020;DHT22;7085;51.428;6.796;2022-10-17T19:22:52;16.90;99.90
14020;DHT22;7085;51.428;6.796;2022-10-17T19:25:19;16.90;99.90
14020;DHT22;7085;51.428;6.796;2022-10-17T19:27:46;16.90;99.90
14020;DHT22;7085;51.428;6.796;2022-10-17T19:30:13;16.90;99.90
14020;DHT22;7085;51.428;6.796;2022-10-17T19:32:41;16.90;99.90
14020;DHT22;7085;51.428;6.796;2022-10-17T19:35:08;16.90;99.90
14020;DHT22;7085;51.428;6.796;2022-10-17T19:37:36;16.90;99.90
14020;DHT22;7085;51.428;6.796;2022-10-17T19:40:04;17.70;99.90
14020;DHT22;7085;51.428;6.796;2022-10-17T19:42:31;16.80;99.90
14020;DHT22;7085;51.428;6.796;2022-10-17T19:44:59;16.80;99.90
14020;DHT22;7085;51.428;6.796;2022-10-17T19:47:26;16.90;99.90
14020;DHT22;7085;51.428;6.796;2022-10-17T19:49:54;16.80;99.90
14020;DHT22;7085;51.428;6.796;2022-10-17T19:52:21;16.80;99.90
14020;DHT22;7085;51.428;6.796;2022-10-17T19:54:48;16.80;99.90
14020;DHT22;7085;51.428;6.796;2022-10-17T19:57:14;16.70;99.90
14020;DHT22;7085;51.428;6.796;2022-10-17T19:59:41;16.70;99.90
14020;DHT22;7085;51.428;6.796;2022-10-17T20:02:10;16.70;99.90
14020;DHT22;7085;51.428;6.796;2022-10-17T20:04:37;16.70;99.90
14020;DHT22;7085;51.428;6.796;2022-10-17T20:07:05;16.70;99.90
14020;DHT22;7085;51.428;6.796;2022-10-17T20:09:32;16.60;99.90
14020;DHT22;7085;51.428;6.796;2022-10-17T20:11:58;16.60;99.90
14020;DHT22;7085;51.428;6.796;2022-10-17T20:14:25;16.60;99.90
14020;DHT22;7085;51.428;6.796;2022-10-17T20:16:52;16.60;99.90
14020;DHT22;7085;51.428;6.796;2022-10-17T20:19:19;16.50;99.90
14020;DHT22;7085;51.428;6.796;2022-10-17T20:21:45;16.50;99.90
14020;DHT22;7085;51.428;6.796;2022-10-17T20:24:15;17.60;99.90
14020;DHT22;7085;51.428;6.796;2022-10-17T20:26:42;16.70;99.90
14020;DHT22;7085;51.428;6.796;2022-10-17T20:29:18;17.50;99.90
14020;DHT22;7085;51.428;6.796;2022-10-17T20:31:46;16.40;99.90
14020;DHT22;7085;51.428;6.796;2022-10-17T20:34:15;16.30;99.90